sensor_id;sensor_type;location;lat;lon;timestamp;temperature;humidity
54832;DHT22;40730;53.068;6.572;2022-10-04T00:02:33;11.80;99.90
54832;DHT22;40730;53.068;6.572;2022-10-04T00:05:04;11.80;99.90
54832;DHT22;40730;53.068;6.572;2022-10-04T00:07:44;11.90;99.90
54832;DHT22;40730;53.068;6.572;2022-10-04T00:12:59;11.80;99.90
54832;DHT22;40730;53.068;6.572;2022-10-04T00:15:34;11.80;99.90
54832;DHT22;40730;53.068;6.572;2022-10-04T00:26:00;11.80;99.90
54832;DHT22;40730;53.068;6.572;2022-10-04T00:28:27;11.80;99.90
54832;DHT22;40730;53.068;6.572;2022-10-04T00:32:08;11.80;99.90
54832;DHT22;40730;53.068;6.572;2022-10-04T00:36:38;11.80;99.90
54832;DHT22;40730;53.068;6.572;2022-10-04T00:44:21;11.70;99.90
54832;DHT22;40730;53.068;6.572;2022-10-04T00:46:49;11.70;99.90
54832;DHT22;40730;53.068;6.572;2022-10-04T00:49:18;11.70;99.90
54832;DHT22;40730;53.068;6.572;2022-10-04T00:54:35;11.60;99.90
54832;DHT22;40730;53.068;6.572;2022-10-04T01:00:14;11.60;99.90
54832;DHT22;40730;53.068;6.572;2022-10-04T01:05:13;11.50;99.90
54832;DHT22;40730;53.068;6.572;2022-10-04T01:07:48;11.50;99.90
54832;DHT22;40730;53.068;6.572;2022-10-04T01:10:27;11.50;99.90
54832;DHT22;40730;53.068;6.572;2022-10-04T01:15:29;11.50;99.90
54832;DHT22;40730;53.068;6.572;2022-10-04T01:18:10;11.40;99.90
54832;DHT22;40730;53.068;6.572;2022-10-04T01:31:36;11.50;99.90
54832;DHT22;40730;53.068;6.572;2022-10-04T01:34:03;11.50;99.90
54832;DHT22;40730;53.068;6.572;2022-10-04T01:36:30;11.50;99.90
54832;DHT22;40730;53.068;6.572;2022-10-04T01:38:56;11.50;99.90
54832;DHT22;40730;53.068;6.572;2022-10-04T01:42:26;11.50;99.90
54832;DHT22;40730;53.068;6.572;2022-10-04T01:44:39;11.50;99.90
54832;DHT22;40730;53.068;6.572;2022-10-04T01:47:11;11.50;99.90
54832;DHT22;40730;53.068;6.572;2022-10-04T01:49:41;11.50;99.90
54832;DHT22;40730;53.068;6.572;2022-10-04T01:52:22;11.50;99.90
54832;DHT22;40730;53.068;6.572;2022-10-04T01:54:57;11.60;99.90
54832;DHT22;40730;53.068;6.572;2022-10-04T01:57:34;11.60;99.90
54832;DHT22;40730;53.068;6.572;2022-10-04T02:00:09;11.60;99.90
54832;DHT22;40730;53.068;6.572;2022-10-04T02:02:50;11.60;99.90
54832;DHT22;40730;53.068;6.572;2022-10-04T02:05:26;11.60;99.90
54832;DHT22;40730;53.068;6.572;2022-10-04T02:07:55;11.60;99.90
54832;DHT22;40730;53.068;6.572;2022-10-04T02:10:22;11.60;99.90
54832;DHT22;40730;53.068;6.572;2022-10-04T02:12:51;11.60;99.90
54832;DHT22;40730;53.068;6.572;2022-10-04T02:15:20;11.60;99.90
54832;DHT22;40730;53.068;6.572;2022-10-04T02:17:47;11.60;99.90
54832;DHT22;40730;53.068;6.572;2022-10-04T02:20:22;11.60;99.90
54832;DHT22;40730;53.068;6.572;2022-10-04T02:22:54;11.60;99.90
54832;DHT22;40730;53.068;6.572;2022-10-04T02:25:21;11.60;99.90
54832;DHT22;40730;53.068;6.572;2022-10-04T02:27:51;11.50;99.90
54832;DHT22;40730;53.068;6.572;2022-10-04T02:30:18;11.50;99.90
54832;DHT22;40730;53.068;6.572;2022-10-04T02:32:43;11.50;99.90
54832;DHT22;40730;53.068;6.572;2022-10-04T02:35:23;11.40;99.90
54832;DHT22;40730;53.068;6.572;2022-10-04T02:38:32;11.40;99.90
54832;DHT22;40730;53.068;6.572;2022-10-04T02:41:21;11.40;99.90
54832;DHT22;40730;53.068;6.572;2022-10-04T02:46:45;11.30;99.90
54832;DHT22;40730;53.068;6.572;2022-10-04T02:49:38;11.20;99.90
54832;DHT22;40730;53.068;6.572;2022-10-04T02:52:11;11.20;99.90
54832;DHT22;40730;53.068;6.572;2022-10-04T02:54:44;11.20;99.90
54832;DHT22;40730;53.068;6.572;2022-10-04T02:57:14;11.10;99.90
54832;DHT22;40730;53.068;6.572;2022-10-04T02:59:41;11.10;99.90
54832;DHT22;40730;53.068;6.572;2022-10-04T03:02:28;11.10;99.90
54832;DHT22;40730;53.068;6.572;2022-10-04T03:05:18;11.10;99.90
54832;DHT22;40730;53.068;6.572;2022-10-04T03:07:43;11.10;99.90
54832;DHT22;40730;53.068;6.572;2022-10-04T03:10:11;11.00;99.90
54832;DHT22;40730;53.068;6.572;2022-10-04T03:12:38;11.00;99.90
54832;DHT22;40730;53.068;6.572;2022-10-04T03:15:11;11.00;99.90
54832;DHT22;40730;53.068;6.572;2022-10-04T03:17:40;11.00;99.90
54832;DHT22;40730;53.068;6.572;2022-10-04T03:20:08;11.00;99.90
54832;DHT22;40730;53.068;6.572;2022-10-04T03:22:37;11.00;99.90
54832;DHT22;40730;53.068;6.572;2022-10-04T03:25:03;11.00;99.90
54832;DHT22;40730;53.068;6.572;2022-10-04T03:27:35;10.90;99.90
54832;DHT22;40730;53.068;6.572;2022-10-04T03:30:00;10.90;99.90
54832;DHT22;40730;53.068;6.572;2022-10-04T03:32:27;10.90;99.90
54832;DHT22;40730;53.068;6.572;2022-10-04T03:34:57;10.90;99.90
54832;DHT22;40730;53.068;6.572;2022-10-04T03:37:23;10.90;99.90
54832;DHT22;40730;53.068;6.572;2022-10-04T03:39:53;10.90;99.90
54832;DHT22;40730;53.068;6.572;2022-10-04T03:42:21;10.80;99.90
54832;DHT22;40730;53.068;6.572;2022-10-04T03:44:51;10.80;99.90
54832;DHT22;40730;53.068;6.572;2022-10-04T03:47:29;10.70;99.90
54832;DHT22;40730;53.068;6.572;2022-10-04T03:49:59;10.70;99.90
54832;DHT22;40730;53.068;6.572;2022-10-04T03:52:31;10.70;99.90
54832;DHT22;40730;53.068;6.572;2022-10-04T03:55:04;10.60;99.90
54832;DHT22;40730;53.068;6.572;2022-10-04T03:57:32;10.60;99.90
54832;DHT22;40730;53.068;6.572;2022-10-04T03:59:58;10.60;99.90
54832;DHT22;40730;53.068;6.572;2022-10-04T04:10:12;10.50;99.90
54832;DHT22;40730;53.068;6.572;2022-10-04T04:15:48;10.50;99.90
54832;DHT22;40730;53.068;6.572;2022-10-04T04:18:20;10.50;99.90
54832;DHT22;40730;53.068;6.572;2022-10-04T04:20:48;10.50;99.90
54832;DHT22;40730;53.068;6.572;2022-10-04T04:23:23;10.50;99.90
54832;DHT22;40730;53.068;6.572;2022-10-04T04:25:54;10.50;99.90
54832;DHT22;40730;53.068;6.572;2022-10-04T04:30:57;10.50;99.90
54832;DHT22;40730;53.068;6.572;2022-10-04T04:33:44;10.50;99.90
54832;DHT22;40730;53.068;6.572;2022-10-04T04:36:15;10.50;99.90
54832;DHT22;40730;53.068;6.572;2022-10-04T04:38:41;10.50;99.90
54832;DHT22;40730;53.068;6.572;2022-10-04T04:41:27;10.40;99.90
54832;DHT22;40730;53.068;6.572;2022-10-04T04:43:56;10.40;99.90
54832;DHT22;40730;53.068;6.572;2022-10-04T04:46:21;10.40;99.90
54832;DHT22;40730;53.068;6.572;2022-10-04T04:48:50;10.30;99.90
54832;DHT22;40730;53.068;6.572;2022-10-04T04:51:22;10.30;99.90
54832;DHT22;40730;53.068;6.572;2022-10-04T04:53:50;10.30;99.90
54832;DHT22;40730;53.068;6.572;2022-10-04T04:56:18;10.30;99.90
54832;DHT22;40730;53.068;6.572;2022-10-04T04:58:47;10.30;99.90
54832;DHT22;40730;53.068;6.572;2022-10-04T05:01:28;10.30;99.90
54832;DHT22;40730;53.068;6.572;2022-10-04T05:06:59;10.30;99.90
54832;DHT22;40730;53.068;6.572;2022-10-04T05:09:25;10.40;99.90
54832;DHT22;40730;53.068;6.572;2022-10-04T05:11:54;10.40;99.90
54832;DHT22;40730;53.068;6.572;2022-10-04T05:14:21;10.40;99.90
54832;DHT22;40730;53.068;6.572;2022-10-04T05:16:53;10.40;99.90
54832;DHT22;40730;53.068;6.572;2022-10-04T05:19:28;10.40;99.90
54832;DHT22;40730;53.068;6.572;2022-10-04T05:21:57;10.40;99.90
54832;DHT22;40730;53.068;6.572;2022-10-04T05:24:33;10.40;99.90
54832;DHT22;40730;53.068;6.572;2022-10-04T05:27:04;10.40;99.90
54832;DHT22;40730;53.068;6.572;2022-10-04T05:29:36;10.30;99.90
54832;DHT22;40730;53.068;6.572;2022-10-04T05:32:28;10.30;99.90
54832;DHT22;40730;53.068;6.572;2022-10-04T05:34:58;10.30;99.90
54832;DHT22;40730;53.068;6.572;2022-10-04T05:37:44;10.30;99.90
54832;DHT22;40730;53.068;6.572;2022-10-04T05:42:46;10.30;99.90
54832;DHT22;40730;53.068;6.572;2022-10-04T05:45:34;10.20;99.90
54832;DHT22;40730;53.068;6.572;2022-10-04T05:48:00;10.20;99.90
54832;DHT22;40730;53.068;6.572;2022-10-04T05:50:38;10.20;99.90
54832;DHT22;40730;53.068;6.572;2022-10-04T05:53:30;10.20;99.90
54832;DHT22;40730;53.068;6.572;2022-10-04T05:59:22;10.20;99.90
54832;DHT22;40730;53.068;6.572;2022-10-04T06:07:00;10.20;99.90
54832;DHT22;40730;53.068;6.572;2022-10-04T06:12:01;10.20;99.90
54832;DHT22;40730;53.068;6.572;2022-10-04T06:17:27;10.20;99.90
54832;DHT22;40730;53.068;6.572;2022-10-04T06:22:58;10.20;99.90
54832;DHT22;40730;53.068;6.572;2022-10-04T06:25:36;10.20;99.90
54832;DHT22;40730;53.068;6.572;2022-10-04T06:28:23;10.30;99.90
54832;DHT22;40730;53.068;6.572;2022-10-04T06:31:27;10.30;99.90
54832;DHT22;40730;53.068;6.572;2022-10-04T06:47:36;10.90;99.90
54832;DHT22;40730;53.068;6.572;2022-10-04T06:50:12;11.00;99.90
54832;DHT22;40730;53.068;6.572;2022-10-04T06:53:01;11.10;99.90
54832;DHT22;40730;53.068;6.572;2022-10-04T07:03:49;11.80;99.90
54832;DHT22;40730;53.068;6.572;2022-10-04T07:06:24;11.90;99.90
54832;DHT22;40730;53.068;6.572;2022-10-04T07:08:52;12.00;99.90
54832;DHT22;40730;53.068;6.572;2022-10-04T07:11:31;12.00;99.90
54832;DHT22;40730;53.068;6.572;2022-10-04T07:16:50;12.10;99.90
54832;DHT22;40730;53.068;6.572;2022-10-04T07:27:06;12.30;99.90
54832;DHT22;40730;53.068;6.572;2022-10-04T07:29:36;12.50;99.90
54832;DHT22;40730;53.068;6.572;2022-10-04T07:32:10;12.70;99.90
54832;DHT22;40730;53.068;6.572;2022-10-04T07:34:58;12.70;99.90
54832;DHT22;40730;53.068;6.572;2022-10-04T07:37:28;12.70;99.90
54832;DHT22;40730;53.068;6.572;2022-10-04T07:40:01;12.70;99.90
54832;DHT22;40730;53.068;6.572;2022-10-04T07:47:30;13.30;99.90
54832;DHT22;40730;53.068;6.572;2022-10-04T07:49:56;13.50;99.90
54832;DHT22;40730;53.068;6.572;2022-10-04T07:55:35;14.30;99.90
54832;DHT22;40730;53.068;6.572;2022-10-04T08:00:56;14.50;99.90
54832;DHT22;40730;53.068;6.572;2022-10-04T08:12:24;14.80;99.90
54832;DHT22;40730;53.068;6.572;2022-10-04T08:17:36;15.50;99.90
54832;DHT22;40730;53.068;6.572;2022-10-04T09:11:55;19.30;99.00
54832;DHT22;40730;53.068;6.572;2022-10-04T09:20:44;19.40;96.80
54832;DHT22;40730;53.068;6.572;2022-10-04T09:31:59;19.40;93.30
54832;DHT22;40730;53.068;6.572;2022-10-04T09:34:32;19.40;94.30
54832;DHT22;40730;53.068;6.572;2022-10-04T09:46:06;17.60;96.20
54832;DHT22;40730;53.068;6.572;2022-10-04T09:57:29;17.00;98.50
54832;DHT22;40730;53.068;6.572;2022-10-04T10:07:59;19.40;95.10
54832;DHT22;40730;53.068;6.572;2022-10-04T10:10:55;20.10;94.40
54832;DHT22;40730;53.068;6.572;2022-10-04T10:22:34;21.90;83.20
54832;DHT22;40730;53.068;6.572;2022-10-04T10:27:52;22.10;79.90
54832;DHT22;40730;53.068;6.572;2022-10-04T10:47:46;23.20;73.60
54832;DHT22;40730;53.068;6.572;2022-10-04T10:50:26;23.30;71.80
54832;DHT22;40730;53.068;6.572;2022-10-04T10:53:15;22.70;71.80
54832;DHT22;40730;53.068;6.572;2022-10-04T10:56:23;22.60;72.80
54832;DHT22;40730;53.068;6.572;2022-10-04T11:01:44;22.60;70.50
54832;DHT22;40730;53.068;6.572;2022-10-04T11:04:51;22.40;72.40
54832;DHT22;40730;53.068;6.572;2022-10-04T11:07:40;22.90;72.60
54832;DHT22;40730;53.068;6.572;2022-10-04T11:13:17;23.00;69.70
54832;DHT22;40730;53.068;6.572;2022-10-04T11:25:09;23.60;70.50
54832;DHT22;40730;53.068;6.572;2022-10-04T11:38:56;23.30;67.20
54832;DHT22;40730;53.068;6.572;2022-10-04T11:50:16;22.80;67.70
54832;DHT22;40730;53.068;6.572;2022-10-04T11:53:23;22.70;68.20
54832;DHT22;40730;53.068;6.572;2022-10-04T11:59:12;22.50;70.20
54832;DHT22;40730;53.068;6.572;2022-10-04T12:07:44;23.00;66.10
54832;DHT22;40730;53.068;6.572;2022-10-04T12:13:23;22.90;67.20
54832;DHT22;40730;53.068;6.572;2022-10-04T12:21:59;23.70;66.70
54832;DHT22;40730;53.068;6.572;2022-10-04T12:43:34;22.60;67.60
54832;DHT22;40730;53.068;6.572;2022-10-04T12:52:10;23.40;66.40
54832;DHT22;40730;53.068;6.572;2022-10-04T12:54:41;23.30;65.50
54832;DHT22;40730;53.068;6.572;2022-10-04T13:05:00;23.30;65.60
54832;DHT22;40730;53.068;6.572;2022-10-04T13:13:29;22.10;67.60
54832;DHT22;40730;53.068;6.572;2022-10-04T13:19:21;21.30;71.00
54832;DHT22;40730;53.068;6.572;2022-10-04T13:22:11;21.50;71.40
54832;DHT22;40730;53.068;6.572;2022-10-04T13:30:21;22.40;69.30
54832;DHT22;40730;53.068;6.572;2022-10-04T13:32:59;23.10;68.30
54832;DHT22;40730;53.068;6.572;2022-10-04T13:38:23;23.60;65.80
54832;DHT22;40730;53.068;6.572;2022-10-04T13:41:18;23.00;67.10
54832;DHT22;40730;53.068;6.572;2022-10-04T13:49:57;21.70;68.30
54832;DHT22;40730;53.068;6.572;2022-10-04T13:55:53;19.80;73.50
54832;DHT22;40730;53.068;6.572;2022-10-04T14:07:36;19.50;77.80
54832;DHT22;40730;53.068;6.572;2022-10-04T14:32:41;20.40;75.60
54832;DHT22;40730;53.068;6.572;2022-10-04T15:03:30;17.80;78.10
54832;DHT22;40730;53.068;6.572;2022-10-04T15:06:25;17.60;79.40
54832;DHT22;40730;53.068;6.572;2022-10-04T15:11:54;17.40;81.10
54832;DHT22;40730;53.068;6.572;2022-10-04T15:14:34;17.30;81.40
54832;DHT22;40730;53.068;6.572;2022-10-04T15:17:06;17.10;82.20
54832;DHT22;40730;53.068;6.572;2022-10-04T15:19:41;17.10;82.90
54832;DHT22;40730;53.068;6.572;2022-10-04T15:22:29;17.00;84.10
54832;DHT22;40730;53.068;6.572;2022-10-04T15:24:56;16.90;85.30
54832;DHT22;40730;53.068;6.572;2022-10-04T15:27:41;16.80;86.20
54832;DHT22;40730;53.068;6.572;2022-10-04T15:30:22;16.70;86.80
54832;DHT22;40730;53.068;6.572;2022-10-04T15:38:43;16.60;88.70
54832;DHT22;40730;53.068;6.572;2022-10-04T15:46:52;16.70;90.00
54832;DHT22;40730;53.068;6.572;2022-10-04T15:55:30;16.90;90.20
54832;DHT22;40730;53.068;6.572;2022-10-04T16:01:11;16.80;90.30
54832;DHT22;40730;53.068;6.572;2022-10-04T16:06:31;16.60;91.00
54832;DHT22;40730;53.068;6.572;2022-10-04T16:15:19;16.40;91.70
54832;DHT22;40730;53.068;6.572;2022-10-04T16:21:03;16.20;92.10
54832;DHT22;40730;53.068;6.572;2022-10-04T16:23:38;16.10;92.50
54832;DHT22;40730;53.068;6.572;2022-10-04T16:29:00;16.00;93.20
54832;DHT22;40730;53.068;6.572;2022-10-04T16:31:49;15.90;93.30
54832;DHT22;40730;53.068;6.572;2022-10-04T16:47:37;15.60;94.90
54832;DHT22;40730;53.068;6.572;2022-10-04T16:50:10;15.50;95.40
54832;DHT22;40730;53.068;6.572;2022-10-04T16:55:35;15.40;96.40
54832;DHT22;40730;53.068;6.572;2022-10-04T17:04:20;15.10;97.80
54832;DHT22;40730;53.068;6.572;2022-10-04T17:06:59;15.10;98.50
54832;DHT22;40730;53.068;6.572;2022-10-04T17:09:38;15.00;99.30
54832;DHT22;40730;53.068;6.572;2022-10-04T17:12:41;15.00;99.80
54832;DHT22;40730;53.068;6.572;2022-10-04T17:25:42;15.10;99.90
54832;DHT22;40730;53.068;6.572;2022-10-04T17:31:42;15.00;99.90
54832;DHT22;40730;53.068;6.572;2022-10-04T17:34:39;15.00;99.90
54832;DHT22;40730;53.068;6.572;2022-10-04T17:42:36;14.90;99.90
54832;DHT22;40730;53.068;6.572;2022-10-04T17:51:04;14.90;99.90
54832;DHT22;40730;53.068;6.572;2022-10-04T17:54:41;14.90;99.90
54832;DHT22;40730;53.068;6.572;2022-10-04T17:59:45;14.80;99.90
54832;DHT22;40730;53.068;6.572;2022-10-04T18:02:26;14.90;99.90
54832;DHT22;40730;53.068;6.572;2022-10-04T18:04:57;14.90;99.90
54832;DHT22;40730;53.068;6.572;2022-10-04T18:07:26;14.90;99.90
54832;DHT22;40730;53.068;6.572;2022-10-04T18:09:57;15.00;99.90
54832;DHT22;40730;53.068;6.572;2022-10-04T18:12:47;15.00;99.90
54832;DHT22;40730;53.068;6.572;2022-10-04T18:15:40;15.00;99.90
54832;DHT22;40730;53.068;6.572;2022-10-04T18:18:18;15.00;99.90
54832;DHT22;40730;53.068;6.572;2022-10-04T18:20:57;15.10;99.90
54832;DHT22;40730;53.068;6.572;2022-10-04T18:23:28;15.10;99.90
54832;DHT22;40730;53.068;6.572;2022-10-04T18:26:02;15.10;99.90
54832;DHT22;40730;53.068;6.572;2022-10-04T18:28:29;15.20;99.90
54832;DHT22;40730;53.068;6.572;2022-10-04T18:31:00;15.20;99.90
54832;DHT22;40730;53.068;6.572;2022-10-04T18:33:46;15.20;99.90
54832;DHT22;40730;53.068;6.572;2022-10-04T18:36:22;15.20;99.90
54832;DHT22;40730;53.068;6.572;2022-10-04T18:42:18;15.20;99.90
54832;DHT22;40730;53.068;6.572;2022-10-04T18:44:47;15.20;99.90
54832;DHT22;40730;53.068;6.572;2022-10-04T18:47:34;15.20;99.90
54832;DHT22;40730;53.068;6.572;2022-10-04T18:50:23;15.20;99.90
54832;DHT22;40730;53.068;6.572;2022-10-04T18:53:15;15.20;99.90
54832;DHT22;40730;53.068;6.572;2022-10-04T18:56:02;15.30;99.90
54832;DHT22;40730;53.068;6.572;2022-10-04T19:01:46;15.30;99.90
54832;DHT22;40730;53.068;6.572;2022-10-04T19:04:52;15.30;99.90
54832;DHT22;40730;53.068;6.572;2022-10-04T19:10:20;15.30;99.90
54832;DHT22;40730;53.068;6.572;2022-10-04T19:18:36;15.30;99.90
54832;DHT22;40730;53.068;6.572;2022-10-04T19:32:03;15.30;99.90
54832;DHT22;40730;53.068;6.572;2022-10-04T19:37:30;15.30;99.90
54832;DHT22;40730;53.068;6.572;2022-10-04T19:40:38;15.30;99.90
54832;DHT22;40730;53.068;6.572;2022-10-04T19:43:14;15.40;99.90
54832;DHT22;40730;53.068;6.572;2022-10-04T19:46:19;15.30;99.90
54832;DHT22;40730;53.068;6.572;2022-10-04T19:48:48;15.40;99.90
54832;DHT22;40730;53.068;6.572;2022-10-04T19:51:25;15.40;99.90
54832;DHT22;40730;53.068;6.572;2022-10-04T19:54:01;15.30;99.90
54832;DHT22;40730;53.068;6.572;2022-10-04T19:56:33;15.30;99.90
54832;DHT22;40730;53.068;6.572;2022-10-04T19:59:11;15.30;99.90
54832;DHT22;40730;53.068;6.572;2022-10-04T20:01:39;15.30;99.90
54832;DHT22;40730;53.068;6.572;2022-10-04T20:04:16;15.30;99.90
54832;DHT22;40730;53.068;6.572;2022-10-04T20:07:02;15.40;99.90
54832;DHT22;40730;53.068;6.572;2022-10-04T20:09:55;15.30;99.90
54832;DHT22;40730;53.068;6.572;2022-10-04T20:12:34;15.30;99.90
54832;DHT22;40730;53.068;6.572;2022-10-04T20:17:43;15.30;99.90
54832;DHT22;40730;53.068;6.572;2022-10-04T20:20:12;15.30;99.90
54832;DHT22;40730;53.068;6.572;2022-10-04T20:30:57;15.30;99.90
54832;DHT22;40730;53.068;6.572;2022-10-04T20:36:11;15.30;99.90
54832;DHT22;40730;53.068;6.572;2022-10-04T20:43:58;15.30;99.90
54832;DHT22;40730;53.068;6.572;2022-10-04T20:46:36;15.30;99.90
54832;DHT22;40730;53.068;6.572;2022-10-04T20:49:04;15.30;99.90
54832;DHT22;40730;53.068;6.572;2022-10-04T20:51:30;15.30;99.90
54832;DHT22;40730;53.068;6.572;2022-10-04T20:53:59;15.30;99.90
54832;DHT22;40730;53.068;6.572;2022-10-04T20:56:29;15.30;99.90
54832;DHT22;40730;53.068;6.572;2022-10-04T20:58:57;15.30;99.90
54832;DHT22;40730;53.068;6.572;2022-10-04T21:01:32;15.20;99.90
54832;DHT22;40730;53.068;6.572;2022-10-04T21:04:25;15.20;99.90
54832;DHT22;40730;53.068;6.572;2022-10-04T21:07:03;15.20;99.90
54832;DHT22;40730;53.068;6.572;2022-10-04T21:09:31;15.00;99.90
54832;DHT22;40730;53.068;6.572;2022-10-04T21:11:57;15.20;99.90
54832;DHT22;40730;53.068;6.572;2022-10-04T21:14:34;15.20;99.90
54832;DHT22;40730;53.068;6.572;2022-10-04T21:17:01;15.20;99.90
54832;DHT22;40730;53.068;6.572;2022-10-04T21:22:07;15.10;99.90
54832;DHT22;40730;53.068;6.572;2022-10-04T21:24:52;15.20;99.90
54832;DHT22;40730;53.068;6.572;2022-10-04T21:29:51;15.20;99.90
54832;DHT22;40730;53.068;6.572;2022-10-04T21:32:20;15.10;99.90
54832;DHT22;40730;53.068;6.572;2022-10-04T21:34:45;15.10;99.90
54832;DHT22;40730;53.068;6.572;2022-10-04T21:37:11;15.10;99.90
54832;DHT22;40730;53.068;6.572;2022-10-04T21:39:37;15.10;99.90
54832;DHT22;40730;53.068;6.572;2022-10-04T21:42:03;15.10;99.90
54832;DHT22;40730;53.068;6.572;2022-10-04T21:44:28;15.10;99.90
54832;DHT22;40730;53.068;6.572;2022-10-04T21:46:54;15.20;99.90
54832;DHT22;40730;53.068;6.572;2022-10-04T21:49:19;15.10;99.90
54832;DHT22;40730;53.068;6.572;2022-10-04T21:51:45;15.10;99.90
54832;DHT22;40730;53.068;6.572;2022-10-04T21:54:10;15.10;99.90
54832;DHT22;40730;53.068;6.572;2022-10-04T21:56:36;15.10;99.90
54832;DHT22;40730;53.068;6.572;2022-10-04T21:59:02;15.10;99.90
54832;DHT22;40730;53.068;6.572;2022-10-04T22:01:27;15.10;99.90
54832;DHT22;40730;53.068;6.572;2022-10-04T22:03:53;15.20;99.90
54832;DHT22;40730;53.068;6.572;2022-10-04T22:06:18;15.10;99.90
54832;DHT22;40730;53.068;6.572;2022-10-04T22:08:44;15.10;99.90
54832;DHT22;40730;53.068;6.572;2022-10-04T22:11:10;15.20;99.90
54832;DHT22;40730;53.068;6.572;2022-10-04T22:13:36;15.10;99.90
54832;DHT22;40730;53.068;6.572;2022-10-04T22:16:02;15.20;99.90
54832;DHT22;40730;53.068;6.572;2022-10-04T22:18:28;15.20;99.90
54832;DHT22;40730;53.068;6.572;2022-10-04T22:20:54;15.20;99.90
54832;DHT22;40730;53.068;6.572;2022-10-04T22:23:22;15.20;99.90
54832;DHT22;40730;53.068;6.572;2022-10-04T22:25:48;15.20;99.90
54832;DHT22;40730;53.068;6.572;2022-10-04T22:28:26;15.20;99.90
54832;DHT22;40730;53.068;6.572;2022-10-04T22:30:53;15.20;99.90
54832;DHT22;40730;53.068;6.572;2022-10-04T22:33:37;15.20;99.90
54832;DHT22;40730;53.068;6.572;2022-10-04T22:36:18;15.20;99.90
54832;DHT22;40730;53.068;6.572;2022-10-04T22:38:50;15.20;99.90
54832;DHT22;40730;53.068;6.572;2022-10-04T22:41:19;15.20;99.90
54832;DHT22;40730;53.068;6.572;2022-10-04T22:43:45;15.20;99.90
54832;DHT22;40730;53.068;6.572;2022-10-04T22:46:14;15.20;99.90
54832;DHT22;40730;53.068;6.572;2022-10-04T22:48:40;15.30;99.90
54832;DHT22;40730;53.068;6.572;2022-10-04T22:51:09;15.20;99.90
54832;DHT22;40730;53.068;6.572;2022-10-04T22:53:35;15.20;99.90
54832;DHT22;40730;53.068;6.572;2022-10-04T22:56:01;15.30;99.90
54832;DHT22;40730;53.068;6.572;2022-10-04T22:58:26;15.30;99.90
54832;DHT22;40730;53.068;6.572;2022-10-04T23:00:54;15.30;99.90
54832;DHT22;40730;53.068;6.572;2022-10-04T23:05:51;15.30;99.90
54832;DHT22;40730;53.068;6.572;2022-10-04T23:08:17;15.30;99.90
54832;DHT22;40730;53.068;6.572;2022-10-04T23:10:44;15.40;99.90
54832;DHT22;40730;53.068;6.572;2022-10-04T23:13:09;15.40;99.90
54832;DHT22;40730;53.068;6.572;2022-10-04T23:15:35;15.30;99.90
54832;DHT22;40730;53.068;6.572;2022-10-04T23:18:01;15.40;99.90
54832;DHT22;40730;53.068;6.572;2022-10-04T23:20:27;15.40;99.90
54832;DHT22;40730;53.068;6.572;2022-10-04T23:22:54;15.40;99.90
54832;DHT22;40730;53.068;6.572;2022-10-04T23:25:27;15.40;99.90
54832;DHT22;40730;53.068;6.572;2022-10-04T23:27:57;15.50;99.90
54832;DHT22;40730;53.068;6.572;2022-10-04T23:30:23;15.40;99.90
54832;DHT22;40730;53.068;6.572;2022-10-04T23:32:51;15.40;99.90
54832;DHT22;40730;53.068;6.572;2022-10-04T23:35:25;15.40;99.90
54832;DHT22;40730;53.068;6.572;2022-10-04T23:37:54;15.40;99.90
54832;DHT22;40730;53.068;6.572;2022-10-04T23:40:21;15.40;99.90
54832;DHT22;40730;53.068;6.572;2022-10-04T23:42:48;15.40;99.90
54832;DHT22;40730;53.068;6.572;2022-10-04T23:45:18;15.40;99.90
54832;DHT22;40730;53.068;6.572;2022-10-04T23:47:45;15.30;99.90
54832;DHT22;40730;53.068;6.572;2022-10-04T23:52:47;15.30;99.90
54832;DHT22;40730;53.068;6.572;2022-10-04T23:55:19;15.30;99.90
54832;DHT22;40730;53.068;6.572;2022-10-04T23:57:45;15.30;99.90
